Time;durP1;ratioP1;P1;durP2;ratioP2;P2;SDS_P1;SDS_P2;PMS_P1;PMS_P2;Temp;Humidity;BMP_temperature;BMP_pressure;BME280_temperature;BME280_humidity;BME280_pressure;Samples;Min_cycle;Max_cycle;Signal;HPM_P1;HPM_P2
2022/01/18 00:00:27;;;;;;;7.97;7.27;;;7.50;44.10;;;;;;10463242;28;20635;-68
2022/01/18 00:05:32;;;;;;;8.43;7.73;;;7.50;44.10;;;;;;10467810;28;20725;-68
2022/01/18 00:10:36;;;;;;;8.63;7.90;;;7.50;44.20;;;;;;10464555;28;20601;-67
2022/01/18 00:15:43;;;;;;;8.20;7.50;;;7.50;44.10;;;;;;10466016;28;20230;-68
2022/01/18 00:21:12;;;;;;;8.20;7.50;;;7.50;44.20;;;;;;10465254;28;20228;-68
2022/01/18 00:26:26;;;;;;;7.60;6.97;;;7.50;44.30;;;;;;10467299;28;20250;-68
2022/01/18 00:31:45;;;;;;;8.63;7.90;;;7.50;44.30;;;;;;10464778;28;20232;-68
2022/01/18 00:37:12;;;;;;;8.70;7.90;;;7.50;44.20;;;;;;10471965;28;20232;-68
2022/01/18 00:42:15;;;;;;;8.97;8.17;;;7.60;44.40;;;;;;10466831;28;20225;-68
2022/01/18 00:47:19;;;;;;;8.83;8.07;;;7.50;44.20;;;;;;10467317;28;20236;-68
2022/01/18 00:52:24;;;;;;;8.67;7.90;;;7.50;44.40;;;;;;10467290;28;20233;-68
2022/01/18 00:57:27;;;;;;;9.00;8.20;;;7.50;44.60;;;;;;10463642;28;20233;-67
2022/01/18 01:02:30;;;;;;;9.33;8.50;;;7.50;44.40;;;;;;10466843;28;20248;-68
2022/01/18 01:07:37;;;;;;;9.50;8.63;;;7.50;44.40;;;;;;10462778;28;20725;-67
2022/01/18 01:13:00;;;;;;;8.63;7.90;;;7.50;44.80;;;;;;10461374;28;20221;-68
2022/01/18 01:18:18;;;;;;;8.93;8.13;;;7.50;44.80;;;;;;10467018;28;20255;-67
2022/01/18 01:34:35;;;;;;;10.73;9.73;;;7.50;44.70;;;;;;10463962;28;20231;-68
2022/01/18 01:45:10;;;;;;;8.87;7.97;;;7.50;44.80;;;;;;10464598;28;20604;-68
2022/01/18 01:50:18;;;;;;;9.27;8.47;;;7.50;44.80;;;;;;10457571;28;20609;-68
2022/01/18 01:55:24;;;;;;;9.50;8.60;;;7.50;44.70;;;;;;10467029;28;20601;-67
2022/01/18 02:00:27;;;;;;;10.03;9.13;;;7.50;44.80;;;;;;10465723;28;20227;-68
2022/01/18 02:05:31;;;;;;;9.97;9.07;;;7.50;44.70;;;;;;10466175;28;20231;-68
2022/01/18 02:10:36;;;;;;;10.53;9.53;;;7.50;44.70;;;;;;10464533;28;20227;-68
2022/01/18 02:15:45;;;;;;;10.30;9.30;;;7.50;44.80;;;;;;10463478;28;20233;-68
2022/01/18 02:26:22;;;;;;;9.47;8.60;;;7.50;44.80;;;;;;10340680;28;20326;-68
2022/01/18 02:31:25;;;;;;;10.73;9.73;;;7.40;44.70;;;;;;10461916;28;20652;-67
2022/01/18 02:36:30;;;;;;;10.73;9.63;;;7.50;44.80;;;;;;10462729;28;20625;-67
2022/01/18 02:41:34;;;;;;;10.33;9.20;;;7.50;44.80;;;;;;10461524;28;20231;-68
2022/01/18 02:46:38;;;;;;;11.27;10.27;;;7.50;44.80;;;;;;10465084;28;20239;-69
2022/01/18 02:51:43;;;;;;;11.43;10.33;;;7.50;44.80;;;;;;10463945;28;20763;-68
2022/01/18 02:56:52;;;;;;;10.73;9.73;;;7.50;44.80;;;;;;10461329;28;20228;-68
2022/01/18 03:07:17;;;;;;;12.40;11.20;;;7.50;44.80;;;;;;10471356;28;20315;-68
2022/01/18 03:12:20;;;;;;;13.33;12.00;;;7.40;44.90;;;;;;10467907;28;20229;-68
2022/01/18 03:17:24;;;;;;;13.00;11.73;;;7.40;45.90;;;;;;10466488;28;20285;-67
2022/01/18 03:22:28;;;;;;;11.37;10.30;;;7.30;45.30;;;;;;10470795;28;20224;-67
2022/01/18 03:32:52;;;;;;;12.30;11.10;;;7.20;45.40;;;;;;10473014;28;20708;-67
2022/01/18 03:37:57;;;;;;;11.77;10.63;;;7.20;45.30;;;;;;10470584;28;20220;-68
2022/01/18 03:43:01;;;;;;;11.97;10.80;;;7.30;45.40;;;;;;10465947;28;20225;-68
2022/01/18 03:48:07;;;;;;;12.43;11.13;;;7.30;45.30;;;;;;10470146;28;20225;-68
2022/01/18 03:53:12;;;;;;;11.93;10.73;;;7.30;45.30;;;;;;10467633;28;20312;-68
2022/01/18 03:58:15;;;;;;;12.80;11.50;;;7.30;45.40;;;;;;10461842;28;20244;-68
2022/01/18 04:03:19;;;;;;;13.10;11.80;;;7.40;45.20;;;;;;10464542;28;20320;-68
2022/01/18 04:08:25;;;;;;;13.13;11.73;;;7.40;45.30;;;;;;10468858;28;20234;-68
2022/01/18 04:13:28;;;;;;;12.20;10.90;;;7.40;45.30;;;;;;10467281;28;20312;-68
2022/01/18 04:18:45;;;;;;;12.13;10.93;;;7.30;45.10;;;;;;10466108;28;20224;-68
2022/01/18 04:29:11;;;;;;;12.27;10.97;;;7.30;45.30;;;;;;10467629;28;20311;-68
2022/01/18 04:34:14;;;;;;;11.53;10.30;;;7.30;45.10;;;;;;10466824;28;20880;-68
2022/01/18 04:39:19;;;;;;;12.23;10.47;;;7.30;45.10;;;;;;10467205;28;20757;-68
2022/01/18 04:49:42;;;;;;;12.03;9.37;;;7.30;45.00;;;;;;10472581;28;20231;-68
2022/01/18 04:54:57;;;;;;;11.73;10.40;;;7.30;45.00;;;;;;10464423;28;20685;-68
2022/01/18 05:00:00;;;;;;;11.20;10.10;;;7.30;45.10;;;;;;10466100;28;20224;-68
2022/01/18 05:05:04;;;;;;;11.00;9.80;;;7.30;45.10;;;;;;10469678;28;20223;-67
2022/01/18 05:10:09;;;;;;;10.90;9.10;;;7.30;44.80;;;;;;10466725;28;20234;-68
2022/01/18 05:15:34;;;;;;;9.60;8.60;;;7.30;44.80;;;;;;10465288;28;20232;-67
2022/01/18 05:20:53;;;;;;;10.13;9.10;;;7.30;44.80;;;;;;10466412;28;20229;-67
2022/01/18 05:26:02;;;;;;;9.93;8.97;;;7.30;44.80;;;;;;10451772;28;20307;-67
2022/01/18 05:31:05;;;;;;;10.00;9.00;;;7.30;44.90;;;;;;10452841;28;20637;-68
2022/01/18 05:36:09;;;;;;;10.63;9.23;;;7.40;44.80;;;;;;10482616;22;20314;-68
2022/01/18 05:41:13;;;;;;;11.20;10.10;;;7.30;44.60;;;;;;10500611;28;20224;-68
2022/01/18 05:46:17;;;;;;;11.23;10.07;;;7.40;44.70;;;;;;10505999;28;20232;-69
2022/01/18 05:51:20;;;;;;;11.27;10.13;;;7.40;44.70;;;;;;10516703;28;20281;-69
2022/01/18 05:56:25;;;;;;;12.87;11.07;;;7.30;44.60;;;;;;10509079;28;20236;-72
2022/01/18 06:01:33;;;;;;;11.87;10.57;;;7.30;44.60;;;;;;10513632;28;20219;-67
2022/01/18 06:06:54;;;;;;;12.40;11.10;;;7.30;44.60;;;;;;10506849;28;20224;-68
2022/01/18 06:11:58;;;;;;;12.80;11.00;;;7.20;44.50;;;;;;10512047;28;20217;-68
2022/01/18 06:17:02;;;;;;;14.13;11.40;;;7.20;45.10;;;;;;10509182;28;20227;-67
2022/01/18 06:22:05;;;;;;;12.03;10.60;;;7.20;44.80;;;;;;10511566;28;20216;-67
2022/01/18 06:27:11;;;;;;;13.20;11.83;;;7.20;44.80;;;;;;10509719;28;20223;-67
2022/01/18 06:32:14;;;;;;;12.63;11.33;;;7.10;45.00;;;;;;10510691;28;20223;-67
2022/01/18 06:37:17;;;;;;;14.20;11.67;;;7.10;45.00;;;;;;10508546;28;20243;-68
2022/01/18 06:42:24;;;;;;;14.33;11.67;;;7.10;44.90;;;;;;10507105;28;20879;-68
2022/01/18 06:47:27;;;;;;;15.63;11.93;;;7.10;45.10;;;;;;10507392;28;20223;-68
2022/01/18 06:52:30;;;;;;;15.43;13.57;;;7.10;45.00;;;;;;10507201;28;20228;-68
2022/01/18 06:57:35;;;;;;;15.37;12.83;;;7.10;45.00;;;;;;10508202;28;20227;-67
2022/01/18 07:02:38;;;;;;;14.80;11.90;;;7.00;45.10;;;;;;10507700;28;20218;-68
2022/01/18 07:07:47;;;;;;;13.80;11.23;;;7.00;44.90;;;;;;10508967;28;20695;-68
2022/01/18 07:12:56;;;;;;;14.20;11.40;;;6.90;45.10;;;;;;10510380;28;20269;-68
2022/01/18 07:17:59;;;;;;;13.00;11.13;;;6.90;45.30;;;;;;10505694;28;20224;-68
2022/01/18 07:23:03;;;;;;;12.73;10.47;;;6.90;45.10;;;;;;10508298;28;20216;-67
2022/01/18 07:28:09;;;;;;;12.07;9.97;;;6.90;45.20;;;;;;10513854;28;20223;-67
2022/01/18 07:33:13;;;;;;;13.13;9.90;;;6.90;45.30;;;;;;10506624;28;20247;-68
2022/01/18 07:38:18;;;;;;;12.97;9.87;;;6.90;45.30;;;;;;10509542;28;20236;-68
2022/01/18 07:43:22;;;;;;;11.10;9.40;;;6.80;45.10;;;;;;10509019;28;20228;-68
2022/01/18 07:48:25;;;;;;;12.63;9.73;;;6.90;45.30;;;;;;10509376;28;20318;-68
2022/01/18 07:53:28;;;;;;;10.07;8.93;;;6.90;45.10;;;;;;10511396;28;20219;-68
2022/01/18 07:58:33;;;;;;;11.50;9.17;;;6.90;45.30;;;;;;10516263;28;20223;-68
2022/01/18 08:03:36;;;;;;;11.90;9.73;;;7.00;45.40;;;;;;10516353;28;20738;-68
2022/01/18 08:08:39;;;;;;;9.83;8.33;;;6.90;45.20;;;;;;10515402;28;20216;-68
2022/01/18 08:13:48;;;;;;;10.37;8.33;;;7.00;45.20;;;;;;10511498;28;20231;-68
2022/01/18 08:18:52;;;;;;;10.33;8.57;;;7.00;45.50;;;;;;10514843;28;20228;-69
2022/01/18 08:23:55;;;;;;;9.97;8.70;;;7.00;45.40;;;;;;10518254;28;20695;-69
2022/01/18 08:28:59;;;;;;;11.07;8.87;;;7.10;45.30;;;;;;10516734;28;20582;-69
2022/01/18 08:34:02;;;;;;;11.73;8.27;;;7.10;45.50;;;;;;10511084;28;20215;-68
2022/01/18 08:39:07;;;;;;;11.57;8.80;;;7.20;45.50;;;;;;10512283;28;20247;-68
2022/01/18 08:44:11;;;;;;;11.40;9.50;;;7.20;45.50;;;;;;10511395;28;20231;-69
2022/01/18 08:49:14;;;;;;;13.03;9.93;;;7.30;45.80;;;;;;10510599;28;20248;-69
2022/01/18 08:54:18;;;;;;;10.63;7.90;;;7.30;45.60;;;;;;10508885;28;20230;-71
2022/01/18 08:59:22;;;;;;;8.37;6.60;;;7.40;45.70;;;;;;10512542;28;20617;-68
2022/01/18 09:04:25;;;;;;;9.53;6.97;;;7.40;45.90;;;;;;10516120;28;20223;-68
2022/01/18 09:09:28;;;;;;;10.50;7.53;;;7.50;45.90;;;;;;10511694;28;20602;-68
2022/01/18 09:14:33;;;;;;;9.20;6.70;;;7.60;45.60;;;;;;10509104;28;20249;-68
2022/01/18 09:19:36;;;;;;;10.30;6.73;;;7.70;45.50;;;;;;10514738;28;20231;-68
2022/01/18 09:24:39;;;;;;;7.97;6.40;;;7.80;45.70;;;;;;10511857;28;20223;-68
2022/01/18 09:29:44;;;;;;;9.57;6.93;;;7.90;45.70;;;;;;10506762;28;20294;-68
2022/01/18 09:34:47;;;;;;;11.07;7.10;;;8.00;45.50;;;;;;10509062;28;20227;-68
2022/01/18 09:39:52;;;;;;;8.17;6.67;;;8.00;45.20;;;;;;10506557;28;20224;-68
2022/01/18 09:44:57;;;;;;;8.10;6.37;;;8.10;45.50;;;;;;10509187;28;20224;-68
2022/01/18 09:50:00;;;;;;;8.73;6.10;;;8.20;45.30;;;;;;10509715;28;20220;-68
2022/01/18 09:55:05;;;;;;;10.67;6.70;;;8.20;45.50;;;;;;10515207;28;20306;-67
2022/01/18 10:00:11;;;;;;;10.13;6.67;;;8.40;45.50;;;;;;10509625;28;20227;-68
2022/01/18 10:05:20;;;;;;;8.30;6.83;;;8.50;45.40;;;;;;10516665;28;20224;-68
2022/01/18 10:10:36;;;;;;;8.83;5.93;;;8.50;45.50;;;;;;10506607;28;20223;-68
2022/01/18 10:15:40;;;;;;;8.03;5.17;;;8.60;45.10;;;;;;10513925;28;20224;-68
2022/01/18 10:20:52;;;;;;;9.87;5.90;;;8.70;45.00;;;;;;10508034;28;20227;-68
2022/01/18 10:25:55;;;;;;;9.20;6.03;;;8.80;44.60;;;;;;10515788;28;20228;-68
2022/01/18 10:31:05;;;;;;;10.17;7.10;;;8.80;44.40;;;;;;10513924;28;20223;-66
2022/01/18 10:36:11;;;;;;;9.73;7.10;;;8.90;44.00;;;;;;10503614;28;20350;-66
2022/01/18 10:41:28;;;;;;;8.63;6.53;;;8.90;44.00;;;;;;10504242;28;20220;-66
2022/01/18 10:46:37;;;;;;;10.03;7.57;;;8.80;43.90;;;;;;10502541;28;20230;-66
2022/01/18 10:51:42;;;;;;;11.10;8.20;;;8.80;43.90;;;;;;10504538;28;20221;-67
2022/01/18 10:56:47;;;;;;;8.80;7.53;;;8.80;43.90;;;;;;10502111;28;20596;-69
2022/01/18 11:02:10;;;;;;;10.80;7.90;;;8.80;43.70;;;;;;10498344;28;20224;-68
2022/01/18 11:07:14;;;;;;;10.30;7.93;;;8.80;43.30;;;;;;10504424;28;20285;-68
2022/01/18 11:12:20;;;;;;;10.23;6.90;;;8.80;43.80;;;;;;10499351;28;20227;-68
2022/01/18 11:17:26;;;;;;;8.63;6.87;;;8.80;43.20;;;;;;10503260;28;20243;-67
2022/01/18 11:22:29;;;;;;;8.67;7.57;;;8.80;43.20;;;;;;10507832;28;20251;-67
2022/01/18 11:27:35;;;;;;;9.00;8.00;;;8.80;43.80;;;;;;10512389;28;20227;-67
2022/01/18 11:32:40;;;;;;;9.73;7.23;;;8.80;43.90;;;;;;10504517;28;20319;-67
2022/01/18 11:37:51;;;;;;;9.53;6.30;;;8.90;43.60;;;;;;10508131;28;20231;-67
2022/01/18 11:42:56;;;;;;;7.93;5.73;;;8.90;43.30;;;;;;10505413;28;20231;-67
2022/01/18 11:48:04;;;;;;;7.83;5.30;;;9.00;42.90;;;;;;10500185;28;20726;-67
2022/01/18 11:53:38;;;;;;;9.97;6.83;;;9.00;42.50;;;;;;10508133;28;20244;-67
2022/01/18 11:58:44;;;;;;;15.20;12.40;;;9.00;42.40;;;;;;10503711;28;20605;-69
2022/01/18 12:03:49;;;;;;;17.83;13.77;;;9.10;43.00;;;;;;10502684;28;20581;-68
2022/01/18 12:08:52;;;;;;;57.57;27.57;;;9.10;43.00;;;;;;10509740;28;20227;-69
2022/01/18 12:13:59;;;;;;;14.27;9.87;;;9.10;43.20;;;;;;10506607;28;20220;-68
2022/01/18 12:19:05;;;;;;;9.93;8.10;;;9.10;43.00;;;;;;10506772;28;20755;-68
2022/01/18 12:24:18;;;;;;;11.47;8.97;;;9.10;43.10;;;;;;10506412;28;20216;-68
2022/01/18 12:34:45;;;;;;;8.57;6.40;;;9.20;43.00;;;;;;10486862;28;20257;-68
2022/01/18 12:40:07;;;;;;;8.13;7.33;;;9.30;42.90;;;;;;10505897;28;20258;-68
2022/01/18 12:45:13;;;;;;;14.90;10.17;;;9.30;42.30;;;;;;10503288;28;20233;-68
2022/01/18 12:50:21;;;;;;;8.83;6.53;;;9.30;42.60;;;;;;10505565;28;20234;-68
2022/01/18 12:55:33;;;;;;;8.33;6.60;;;9.30;42.50;;;;;;10488853;28;20228;-68
2022/01/18 13:00:41;;;;;;;11.90;6.20;;;9.30;42.20;;;;;;10487985;28;20232;-68
2022/01/18 13:05:48;;;;;;;8.23;4.93;;;9.40;42.40;;;;;;10495133;28;20246;-68
2022/01/18 13:10:52;;;;;;;6.67;3.67;;;9.40;42.10;;;;;;10491831;28;20243;-68
2022/01/18 13:22:56;;;;;;;5.43;3.80;;;9.40;42.20;;;;;;10490721;28;20224;-68
2022/01/18 13:27:11;;;;;;;5.90;3.17;;;9.50;41.70;;;;;;10488776;28;20527;-68
2022/01/18 13:32:18;;;;;;;7.60;3.60;;;9.50;42.10;;;;;;10489168;28;20742;-68
2022/01/18 13:37:27;;;;;;;9.47;4.23;;;9.50;41.60;;;;;;10487726;28;20493;-68
2022/01/18 13:42:36;;;;;;;6.53;3.67;;;9.40;41.00;;;;;;10492865;28;20458;-68
2022/01/18 13:47:46;;;;;;;6.80;3.73;;;9.40;41.20;;;;;;10494673;28;20592;-68
2022/01/18 13:52:59;;;;;;;5.67;3.30;;;9.40;41.40;;;;;;10487621;28;20227;-66
2022/01/18 13:58:04;;;;;;;7.57;4.50;;;9.50;41.00;;;;;;10488577;28;20224;-67
2022/01/18 14:03:07;;;;;;;8.50;4.27;;;9.50;42.00;;;;;;10486471;28;20246;-66
2022/01/18 14:08:11;;;;;;;6.00;3.60;;;9.60;42.20;;;;;;10484465;28;20544;-66
2022/01/18 14:13:29;;;;;;;5.20;3.27;;;9.60;41.80;;;;;;10488253;28;20223;-66
2022/01/18 14:18:51;;;;;;;6.87;3.80;;;9.60;42.20;;;;;;10487144;28;20234;-67
2022/01/18 14:24:12;;;;;;;6.07;3.77;;;9.60;41.00;;;;;;10490481;28;20429;-68
2022/01/18 14:29:16;;;;;;;7.70;4.03;;;9.60;40.90;;;;;;10486526;28;20668;-70
2022/01/18 14:34:28;;;;;;;5.67;4.27;;;9.60;41.70;;;;;;10487328;28;20836;-70
2022/01/18 14:39:33;;;;;;;8.27;4.20;;;9.60;41.10;;;;;;10480929;28;20226;-69
2022/01/18 14:44:58;;;;;;;6.20;3.87;;;9.70;41.50;;;;;;10487500;28;20223;-69
2022/01/18 14:50:02;;;;;;;6.10;3.53;;;9.60;41.50;;;;;;10492033;28;20220;-69
2022/01/18 14:55:09;;;;;;;4.87;3.50;;;9.60;41.20;;;;;;10485305;28;20234;-69
2022/01/18 15:00:15;;;;;;;5.33;3.33;;;9.60;41.00;;;;;;10493841;28;20493;-70
2022/01/18 15:05:18;;;;;;;5.50;3.00;;;9.60;41.00;;;;;;10498503;28;20624;-69
2022/01/18 15:10:23;;;;;;;2.83;2.20;;;9.60;41.00;;;;;;10497121;28;20238;-69
2022/01/18 15:15:28;;;;;;;3.87;2.20;;;9.60;40.50;;;;;;10500866;28;20453;-68
2022/01/18 15:20:31;;;;;;;5.37;3.10;;;9.50;40.50;;;;;;10502148;28;20350;-68
2022/01/18 15:25:41;;;;;;;5.93;2.90;;;9.50;40.80;;;;;;10499743;28;20598;-68
2022/01/18 15:30:44;;;;;;;2.63;2.33;;;9.50;40.50;;;;;;10499909;28;20235;-66
2022/01/18 15:35:47;;;;;;;2.50;2.03;;;9.50;40.50;;;;;;10490157;28;20227;-66
2022/01/18 15:40:52;;;;;;;5.17;2.90;;;9.50;40.50;;;;;;10496369;28;20773;-66
2022/01/18 15:45:55;;;;;;;2.47;2.20;;;9.50;40.50;;;;;;10496283;28;20232;-66
2022/01/18 15:50:58;;;;;;;2.47;2.03;;;9.50;40.50;;;;;;10499861;28;20230;-67
2022/01/18 15:56:03;;;;;;;4.30;2.30;;;9.40;40.40;;;;;;10496082;28;20228;-68
2022/01/18 16:01:06;;;;;;;5.63;2.30;;;9.40;40.40;;;;;;10497286;28;20661;-66
2022/01/18 16:06:10;;;;;;;2.57;2.03;;;9.30;40.30;;;;;;10488713;28;20235;-66
2022/01/18 16:11:15;;;;;;;4.37;2.80;;;9.40;40.40;;;;;;10488387;28;20231;-66
2022/01/18 16:16:19;;;;;;;4.07;2.87;;;9.40;40.40;;;;;;10485863;28;20220;-66
2022/01/18 16:21:26;;;;;;;7.80;6.43;;;9.40;40.40;;;;;;10494212;28;20809;-66
2022/01/18 16:26:31;;;;;;;8.97;6.73;;;9.30;40.30;;;;;;10490428;28;20227;-66
2022/01/18 16:31:37;;;;;;;8.83;4.73;;;9.30;40.30;;;;;;10493586;28;20224;-66
2022/01/18 16:36:40;;;;;;;7.43;5.63;;;9.30;40.30;;;;;;10490650;28;20235;-66
2022/01/18 16:41:45;;;;;;;7.07;4.33;;;9.30;40.30;;;;;;10492234;28;20586;-66
2022/01/18 16:46:48;;;;;;;5.27;3.30;;;9.20;40.20;;;;;;10490227;28;20254;-66
2022/01/18 16:51:54;;;;;;;5.97;3.60;;;9.10;40.10;;;;;;10488773;28;20700;-66
2022/01/18 16:56:59;;;;;;;7.20;4.87;;;9.00;40.10;;;;;;10489873;28;20227;-66
2022/01/18 17:02:02;;;;;;;6.77;4.00;;;9.00;40.10;;;;;;10490615;28;20224;-68
2022/01/18 17:07:06;;;;;;;6.37;4.40;;;9.00;40.80;;;;;;10494359;28;20333;-68
2022/01/18 17:12:11;;;;;;;13.73;10.13;;;9.10;41.00;;;;;;10488141;28;20372;-68
2022/01/18 17:17:14;;;;;;;9.93;6.37;;;9.10;40.10;;;;;;10488651;28;20757;-68
2022/01/18 17:22:17;;;;;;;7.07;4.63;;;9.10;40.30;;;;;;10489011;28;20228;-68
2022/01/18 17:27:22;;;;;;;7.10;4.93;;;9.10;40.30;;;;;;10485532;28;20718;-68
2022/01/18 17:32:25;;;;;;;4.67;2.70;;;9.10;40.10;;;;;;10492641;28;20231;-68
2022/01/18 17:37:28;;;;;;;3.40;2.50;;;9.10;40.10;;;;;;10494471;28;20227;-68
2022/01/18 17:42:33;;;;;;;3.53;2.87;;;9.00;40.10;;;;;;10488751;28;20228;-68
2022/01/18 17:47:36;;;;;;;5.83;4.00;;;9.00;40.10;;;;;;10491284;28;20232;-68
2022/01/18 17:52:39;;;;;;;8.00;6.03;;;9.00;40.10;;;;;;10485017;28;20230;-68
2022/01/18 17:57:45;;;;;;;6.50;4.37;;;9.00;40.10;;;;;;10489759;28;20232;-68
2022/01/18 18:02:48;;;;;;;5.73;4.37;;;9.00;40.00;;;;;;10492255;28;20254;-68
2022/01/18 18:07:51;;;;;;;6.23;4.40;;;9.00;40.10;;;;;;10492561;28;20255;-68
2022/01/18 18:12:55;;;;;;;8.77;4.87;;;9.00;40.10;;;;;;10488822;28;20220;-68
2022/01/18 18:18:01;;;;;;;6.33;5.30;;;9.00;40.10;;;;;;10490849;28;20602;-68
2022/01/18 18:23:04;;;;;;;8.83;7.00;;;9.10;40.10;;;;;;10491478;28;20239;-68
2022/01/18 18:28:09;;;;;;;6.20;5.60;;;9.10;40.40;;;;;;10490344;28;20228;-68
2022/01/18 18:33:12;;;;;;;8.27;6.27;;;9.20;40.20;;;;;;10484089;28;20917;-69
2022/01/18 18:38:18;;;;;;;5.30;4.47;;;9.20;40.20;;;;;;10487212;28;20220;-69
2022/01/18 18:43:30;;;;;;;6.67;5.90;;;9.20;40.20;;;;;;10490336;28;20238;-69
2022/01/18 18:48:35;;;;;;;4.80;3.50;;;9.30;39.90;;;;;;10481166;28;20227;-68
2022/01/18 18:53:39;;;;;;;6.07;3.30;;;9.20;39.10;;;;;;10487333;28;20882;-68
2022/01/18 18:59:05;;;;;;;8.30;4.33;;;9.10;39.10;;;;;;10486147;28;20323;-68
2022/01/18 19:04:10;;;;;;;6.23;3.80;;;9.00;38.30;;;;;;10490603;28;20754;-68
2022/01/18 19:09:13;;;;;;;6.17;4.67;;;8.80;39.00;;;;;;10483395;28;20224;-68
2022/01/18 19:14:18;;;;;;;6.47;4.00;;;8.70;39.40;;;;;;10487152;28;20215;-68
2022/01/18 19:19:21;;;;;;;4.87;3.70;;;8.60;39.30;;;;;;10488557;28;20236;-68
2022/01/18 19:24:25;;;;;;;5.30;3.57;;;8.70;39.80;;;;;;10480253;28;20239;-68
2022/01/18 19:29:29;;;;;;;4.47;3.10;;;8.70;39.80;;;;;;10480028;28;20232;-68
2022/01/18 19:34:33;;;;;;;5.63;3.50;;;8.70;39.20;;;;;;10478106;28;20219;-68
2022/01/18 19:39:37;;;;;;;7.03;4.43;;;8.70;39.80;;;;;;10481268;28;20642;-69
2022/01/18 19:44:42;;;;;;;5.37;3.90;;;8.70;39.40;;;;;;10487482;28;20224;-68
2022/01/18 19:49:46;;;;;;;7.17;5.23;;;8.70;39.30;;;;;;10491749;28;20221;-68
2022/01/18 19:54:49;;;;;;;7.07;5.47;;;8.70;39.60;;;;;;10487446;28;20650;-68
2022/01/18 19:59:53;;;;;;;6.80;4.30;;;8.70;39.30;;;;;;10486638;28;20223;-68
2022/01/18 20:04:56;;;;;;;5.90;4.10;;;8.70;39.10;;;;;;10484145;28;20597;-68
2022/01/18 20:10:00;;;;;;;5.93;3.87;;;8.60;39.10;;;;;;10483834;28;20224;-68
2022/01/18 20:15:10;;;;;;;4.37;3.70;;;8.60;39.10;;;;;;10495657;28;20219;-68
2022/01/18 20:20:14;;;;;;;3.57;3.27;;;8.60;38.70;;;;;;10512219;28;20223;-68
2022/01/18 20:25:17;;;;;;;5.93;3.50;;;8.60;39.10;;;;;;10513619;28;20226;-68
2022/01/18 20:30:24;;;;;;;6.17;2.70;;;8.60;39.30;;;;;;10519669;28;20714;-68
2022/01/18 20:35:28;;;;;;;4.37;2.50;;;8.50;38.80;;;;;;10518057;28;20238;-68
2022/01/18 20:40:35;;;;;;;3.00;2.30;;;8.50;39.10;;;;;;10510869;28;20215;-69
2022/01/18 20:45:41;;;;;;;3.83;2.70;;;8.40;39.20;;;;;;10494362;28;20228;-68
2022/01/18 20:50:46;;;;;;;4.67;2.87;;;8.40;39.00;;;;;;10496323;28;20216;-69
2022/01/18 20:55:51;;;;;;;3.60;3.17;;;8.30;39.50;;;;;;10498793;28;20289;-68
2022/01/18 21:00:56;;;;;;;4.83;3.67;;;8.20;39.20;;;;;;10498020;28;20692;-68
2022/01/18 21:05:59;;;;;;;4.53;3.40;;;8.20;38.90;;;;;;10498619;28;20825;-68
2022/01/18 21:11:04;;;;;;;4.10;2.70;;;8.10;39.30;;;;;;10501562;28;20224;-68
2022/01/18 21:16:09;;;;;;;3.73;2.57;;;8.10;39.30;;;;;;10501254;28;20230;-68
2022/01/18 21:21:12;;;;;;;3.27;2.63;;;8.00;39.00;;;;;;10502664;28;20704;-68
2022/01/18 21:26:15;;;;;;;2.90;2.30;;;7.90;39.10;;;;;;10496330;28;20223;-68
2022/01/18 21:31:20;;;;;;;3.83;2.53;;;7.80;39.10;;;;;;10499907;28;20728;-68
2022/01/18 21:36:23;;;;;;;4.03;2.80;;;7.70;38.90;;;;;;10503769;28;20292;-69
2022/01/18 21:41:26;;;;;;;4.63;2.73;;;7.60;38.90;;;;;;10497982;28;20231;-68
2022/01/18 21:46:32;;;;;;;4.63;3.40;;;7.50;38.80;;;;;;10505786;28;20224;-68
2022/01/18 21:51:36;;;;;;;4.93;3.20;;;7.40;38.80;;;;;;10504993;28;20231;-69
2022/01/18 21:56:41;;;;;;;4.50;3.40;;;7.30;38.70;;;;;;10496177;28;20900;-69
2022/01/18 22:01:46;;;;;;;4.47;3.30;;;7.20;38.60;;;;;;10502399;28;20595;-69
2022/01/18 22:06:49;;;;;;;4.83;3.00;;;7.10;38.50;;;;;;10504495;28;20245;-69
2022/01/18 22:11:53;;;;;;;4.07;3.40;;;7.00;38.40;;;;;;10500091;28;20231;-69
2022/01/18 22:16:57;;;;;;;3.40;2.70;;;6.90;38.30;;;;;;10500322;28;20235;-68
2022/01/18 22:22:01;;;;;;;4.03;3.50;;;6.90;38.30;;;;;;10495935;28;20254;-66
2022/01/18 22:27:04;;;;;;;4.93;3.00;;;6.80;38.60;;;;;;10500465;28;20296;-66
2022/01/18 22:32:09;;;;;;;3.93;2.97;;;6.80;38.30;;;;;;10493219;28;20634;-66
2022/01/18 22:37:12;;;;;;;5.03;3.07;;;6.70;38.20;;;;;;10497663;28;20904;-66
2022/01/18 22:42:16;;;;;;;2.60;2.40;;;6.60;38.30;;;;;;10495397;28;20235;-66
2022/01/18 22:47:20;;;;;;;2.73;2.40;;;6.50;38.50;;;;;;10498571;28;20587;-66
2022/01/18 22:52:27;;;;;;;3.87;2.83;;;6.50;38.60;;;;;;10497286;28;20235;-66
2022/01/18 22:57:31;;;;;;;5.40;3.00;;;6.40;38.60;;;;;;10502185;28;20227;-66
2022/01/18 23:02:35;;;;;;;4.63;3.00;;;6.30;38.70;;;;;;10498387;28;20243;-66
2022/01/18 23:07:39;;;;;;;2.63;2.37;;;6.30;38.80;;;;;;10496286;28;20314;-66
2022/01/18 23:12:42;;;;;;;2.83;2.53;;;6.30;38.80;;;;;;10499064;28;20224;-66
2022/01/18 23:17:47;;;;;;;3.80;3.00;;;6.20;38.80;;;;;;10497297;28;20226;-66
2022/01/18 23:22:50;;;;;;;3.63;3.03;;;6.20;38.80;;;;;;10502860;28;20258;-67
2022/01/18 23:27:53;;;;;;;4.40;2.83;;;6.10;38.80;;;;;;10501950;28;20711;-66
2022/01/18 23:32:58;;;;;;;4.80;3.10;;;6.10;38.80;;;;;;10500849;28;20221;-66
2022/01/18 23:38:05;;;;;;;7.20;3.13;;;6.00;38.50;;;;;;10513376;28;20215;-67
2022/01/18 23:43:08;;;;;;;4.77;2.63;;;5.90;38.70;;;;;;10512847;28;20609;-66
2022/01/18 23:48:13;;;;;;;4.40;3.23;;;5.80;38.80;;;;;;10507862;28;20224;-66
2022/01/18 23:53:16;;;;;;;5.00;2.80;;;5.80;38.80;;;;;;10512924;28;20238;-67
2022/01/18 23:58:21;;;;;;;3.13;2.80;;;5.70;38.90;;;;;;10512041;28;20231;-66
